createdAt,value
2023-03-16T00:01:37.915Z,1.17
2023-03-16T00:04:06.315Z,1.23
2023-03-16T00:06:34.294Z,0.80
2023-03-16T00:09:02.387Z,0.95
2023-03-16T00:11:30.788Z,0.60
2023-03-16T00:14:00.105Z,0.80
2023-03-16T00:16:28.040Z,1.00
2023-03-16T00:18:56.066Z,0.70
2023-03-16T00:21:24.030Z,0.90
2023-03-16T00:23:53.405Z,0.90
2023-03-16T00:26:22.470Z,1.08
2023-03-16T00:28:54.340Z,0.77
2023-03-16T00:31:25.073Z,0.80
2023-03-16T00:33:53.204Z,0.90
2023-03-16T00:36:22.656Z,0.82
2023-03-16T00:41:18.498Z,1.00
2023-03-16T00:43:46.533Z,0.95
2023-03-16T00:46:16.595Z,0.60
2023-03-16T00:48:48.151Z,0.80
2023-03-16T00:51:18.909Z,0.50
2023-03-16T00:53:48.116Z,0.77
2023-03-16T00:56:17.517Z,0.77
2023-03-16T00:58:45.654Z,1.00
2023-03-16T01:01:17.350Z,0.77
2023-03-16T01:03:47.381Z,0.70
2023-03-16T01:06:20.058Z,0.80
2023-03-16T01:08:48.320Z,0.60
2023-03-16T01:11:20.159Z,0.77
2023-03-16T01:13:49.482Z,0.82
2023-03-16T01:16:19.321Z,0.57
2023-03-16T01:18:48.681Z,0.80
2023-03-16T01:21:17.713Z,0.95
2023-03-16T01:23:45.627Z,0.68
2023-03-16T01:26:15.228Z,0.65
2023-03-16T01:28:44.338Z,0.95
2023-03-16T01:31:15.634Z,1.10
2023-03-16T01:33:44.742Z,0.90
2023-03-16T01:36:18.110Z,0.95
2023-03-16T01:38:46.838Z,0.90
2023-03-16T01:41:16.373Z,0.82
2023-03-16T01:46:22.166Z,0.80
2023-03-16T01:49:08.211Z,0.90
2023-03-16T01:51:44.670Z,0.70
2023-03-16T01:54:24.678Z,0.80
2023-03-16T01:57:01.050Z,0.80
2023-03-16T01:59:35.204Z,0.80
2023-03-16T02:02:03.947Z,0.90
2023-03-16T02:04:44.230Z,0.73
2023-03-16T02:07:17.035Z,0.70
2023-03-16T02:09:51.704Z,0.60
2023-03-16T02:12:21.737Z,0.88
2023-03-16T02:14:52.127Z,1.00
2023-03-16T02:17:24.747Z,0.85
2023-03-16T02:20:11.104Z,0.73
2023-03-16T02:22:46.211Z,0.63
2023-03-16T02:25:19.589Z,0.88
2023-03-16T02:28:02.236Z,1.10
2023-03-16T02:30:32.723Z,0.60
2023-03-16T02:33:01.572Z,1.10
2023-03-16T02:35:29.702Z,1.20
2023-03-16T02:37:58.084Z,0.70
2023-03-16T02:40:30.457Z,0.60
2023-03-16T02:43:04.978Z,0.80
2023-03-16T02:45:44.070Z,1.02
2023-03-16T02:48:20.062Z,1.00
2023-03-16T02:50:52.727Z,0.93
2023-03-16T02:53:21.399Z,0.80
2023-03-16T02:55:49.634Z,0.70
2023-03-16T02:58:17.840Z,0.63
2023-03-16T03:00:47.207Z,0.77
2023-03-16T03:03:15.278Z,1.10
2023-03-16T03:05:43.357Z,0.70
2023-03-16T03:08:11.468Z,0.90
2023-03-16T03:10:39.488Z,0.70
2023-03-16T03:13:08.193Z,1.00
2023-03-16T03:15:36.567Z,0.90
2023-03-16T03:18:05.849Z,0.77
2023-03-16T03:20:33.840Z,0.95
2023-03-16T03:23:02.982Z,1.05
2023-03-16T03:25:34.615Z,1.02
2023-03-16T03:28:05.380Z,1.00
2023-03-16T03:30:33.802Z,1.10
2023-03-16T03:33:02.705Z,0.60
2023-03-16T03:35:32.023Z,1.10
2023-03-16T03:37:59.938Z,0.75
2023-03-16T03:40:28.084Z,0.90
2023-03-16T03:42:56.130Z,0.93
2023-03-16T03:45:24.034Z,0.80
2023-03-16T03:47:52.227Z,0.80
2023-03-16T03:50:20.361Z,0.90
2023-03-16T03:52:49.665Z,1.05
2023-03-16T03:55:17.736Z,1.13
2023-03-16T03:57:45.698Z,1.20
2023-03-16T04:00:14.878Z,1.00
2023-03-16T04:02:42.996Z,0.80
2023-03-16T04:05:11.161Z,0.80
2023-03-16T04:07:39.209Z,1.00
2023-03-16T04:10:10.664Z,0.60
2023-03-16T04:12:38.709Z,0.70
2023-03-16T04:15:07.778Z,0.82
2023-03-16T04:17:35.782Z,0.80
2023-03-16T04:20:10.629Z,0.68
2023-03-16T04:22:38.549Z,1.00
2023-03-16T04:25:11.036Z,0.70
2023-03-16T04:27:39.402Z,0.80
2023-03-16T04:30:12.248Z,1.00
2023-03-16T04:32:41.622Z,0.63
2023-03-16T04:40:16.601Z,1.02
2023-03-16T04:42:46.376Z,0.70
2023-03-16T04:45:15.741Z,0.90
2023-03-16T04:47:43.778Z,0.80
2023-03-16T04:50:13.129Z,0.77
2023-03-16T04:52:41.198Z,0.80
2023-03-16T04:55:11.076Z,1.08
2023-03-16T04:57:39.283Z,0.80
2023-03-16T05:00:11.701Z,0.95
2023-03-16T05:02:40.009Z,0.75
2023-03-16T05:05:08.713Z,0.93
2023-03-16T05:07:36.758Z,1.00
2023-03-16T05:10:05.618Z,0.70
2023-03-16T05:12:35.188Z,1.08
2023-03-16T05:17:30.892Z,1.13
2023-03-16T05:19:58.935Z,0.98
2023-03-16T05:22:27.536Z,1.08
2023-03-16T05:24:55.421Z,0.70
2023-03-16T05:27:23.479Z,0.90
2023-03-16T05:29:52.782Z,1.00
2023-03-16T05:32:20.693Z,1.00
2023-03-16T05:34:48.622Z,0.80
2023-03-16T05:37:16.520Z,0.80
2023-03-16T05:39:44.457Z,0.80
2023-03-16T05:42:12.460Z,0.75
2023-03-16T05:44:40.633Z,2.13
2023-03-16T05:47:10.181Z,1.08
2023-03-16T05:49:38.180Z,0.82
2023-03-16T05:52:06.580Z,0.90
2023-03-16T05:54:34.591Z,1.10
2023-03-16T05:57:02.601Z,1.10
2023-03-16T05:59:30.515Z,0.80
2023-03-16T06:01:58.444Z,0.68
2023-03-16T06:04:28.004Z,0.65
2023-03-16T06:06:55.944Z,0.50
2023-03-16T06:09:23.826Z,0.90
2023-03-16T06:11:51.718Z,0.85
2023-03-16T06:14:19.674Z,1.08
2023-03-16T06:16:47.620Z,0.90
2023-03-16T06:19:15.947Z,0.70
2023-03-16T06:21:45.368Z,0.90
2023-03-16T06:26:41.182Z,1.10
2023-03-16T06:29:09.179Z,0.88
2023-03-16T06:31:38.094Z,0.90
2023-03-16T06:34:06.156Z,1.05
2023-03-16T06:36:34.196Z,0.82
2023-03-16T06:39:04.313Z,0.98
2023-03-16T06:41:32.239Z,0.90
2023-03-16T06:44:00.286Z,0.82
2023-03-16T06:46:28.250Z,0.80
2023-03-16T06:48:56.202Z,0.95
2023-03-16T06:51:24.194Z,0.57
2023-03-16T06:53:52.236Z,0.80
2023-03-16T06:56:21.544Z,0.60
2023-03-16T06:58:49.884Z,0.70
2023-03-16T07:01:17.907Z,1.02
2023-03-16T07:03:46.076Z,0.70
2023-03-16T07:06:14.276Z,0.80
2023-03-16T07:08:42.557Z,0.85
2023-03-16T07:11:10.729Z,0.90
2023-03-16T07:13:40.048Z,0.70
2023-03-16T07:16:08.917Z,1.40
2023-03-16T07:18:38.007Z,1.00
2023-03-16T07:21:06.765Z,0.60
2023-03-16T07:23:34.862Z,0.80
2023-03-16T07:26:03.671Z,0.60
2023-03-16T07:28:32.196Z,1.10
2023-03-16T07:31:04.192Z,0.80
2023-03-16T07:33:33.192Z,0.80
2023-03-16T07:36:04.213Z,0.82
2023-03-16T07:38:33.499Z,0.60
2023-03-16T07:41:02.026Z,0.60
2023-03-16T07:43:30.302Z,0.68
2023-03-16T07:45:58.339Z,0.52
2023-03-16T07:48:27.854Z,0.70
2023-03-16T07:50:55.886Z,0.70
2023-03-16T07:53:23.836Z,0.70
2023-03-16T07:55:51.762Z,0.60
2023-03-16T07:58:19.764Z,0.50
2023-03-16T08:00:47.803Z,0.90
2023-03-16T08:03:15.809Z,0.70
2023-03-16T08:05:45.110Z,0.80
2023-03-16T08:08:13.107Z,0.70
2023-03-16T08:10:41.594Z,0.80
2023-03-16T08:13:09.452Z,0.60
2023-03-16T08:15:37.510Z,0.50
2023-03-16T08:18:07.135Z,0.80
2023-03-16T08:23:04.759Z,0.70
2023-03-16T08:25:32.692Z,0.50
2023-03-16T08:28:00.600Z,0.60
2023-03-16T08:30:30.582Z,0.63
2023-03-16T08:32:58.975Z,0.75
2023-03-16T08:35:27.224Z,0.75
2023-03-16T08:37:55.372Z,0.60
2023-03-16T08:40:25.052Z,0.60
2023-03-16T08:42:54.289Z,0.50
2023-03-16T08:45:23.390Z,0.47
2023-03-16T08:47:51.413Z,0.88
2023-03-16T08:50:19.637Z,0.60
2023-03-16T08:52:48.907Z,0.55
2023-03-16T08:55:16.795Z,0.70
2023-03-16T08:57:46.415Z,0.75
2023-03-16T09:02:44.817Z,0.60
2023-03-16T09:05:15.840Z,0.80
2023-03-16T09:07:43.909Z,0.50
2023-03-16T09:10:16.181Z,0.60
2023-03-16T09:12:46.468Z,0.75
2023-03-16T09:15:14.835Z,0.60
2023-03-16T09:17:44.999Z,0.60
2023-03-16T09:20:35.001Z,0.70
2023-03-16T09:23:03.560Z,0.60
2023-03-16T09:25:32.427Z,0.60
2023-03-16T09:28:02.143Z,0.43
2023-03-16T09:30:30.414Z,0.70
2023-03-16T09:32:58.588Z,0.82
2023-03-16T09:35:26.964Z,0.65
2023-03-16T09:38:05.609Z,0.70
2023-03-16T09:40:36.252Z,0.60
2023-03-16T09:43:30.976Z,0.80
2023-03-16T09:46:10.962Z,0.60
2023-03-16T09:48:41.202Z,0.65
2023-03-16T09:51:21.622Z,0.60
2023-03-16T09:53:56.558Z,0.63
2023-03-16T09:57:06.181Z,0.60
2023-03-16T10:03:35.856Z,0.60
2023-03-16T10:06:07.040Z,0.60
2023-03-16T10:08:41.951Z,0.60
2023-03-16T10:11:27.869Z,0.40
2023-03-16T10:14:04.103Z,0.40
2023-03-16T10:16:41.138Z,0.47
2023-03-16T10:19:15.367Z,0.50
2023-03-16T10:21:44.879Z,0.47
2023-03-16T10:24:42.964Z,0.70
2023-03-16T10:27:21.481Z,0.50
2023-03-16T10:29:50.316Z,0.60
2023-03-16T10:32:20.147Z,0.67
2023-03-16T10:34:57.668Z,0.50
2023-03-16T10:37:28.284Z,0.50
2023-03-16T10:39:57.271Z,0.60
2023-03-16T10:42:27.060Z,0.70
2023-03-16T10:45:01.947Z,0.47
2023-03-16T10:47:34.977Z,0.50
2023-03-16T10:50:16.748Z,0.60
2023-03-16T10:52:49.599Z,0.50
2023-03-16T10:55:24.661Z,0.50
2023-03-16T10:57:55.695Z,0.50
2023-03-16T11:00:29.028Z,0.40
2023-03-16T11:03:01.135Z,0.40
2023-03-16T11:05:33.807Z,0.40
2023-03-16T11:08:10.591Z,0.40
2023-03-16T11:10:54.762Z,0.60
2023-03-16T11:13:26.505Z,0.55
2023-03-16T11:16:02.667Z,0.50
2023-03-16T11:18:35.567Z,0.40
2023-03-16T11:21:14.474Z,0.50
2023-03-16T11:23:50.325Z,0.65
2023-03-16T11:26:28.329Z,0.50
2023-03-16T11:29:08.792Z,0.50
2023-03-16T11:31:49.384Z,0.50
2023-03-16T11:34:25.731Z,0.40
2023-03-16T11:36:57.775Z,0.60
2023-03-16T11:39:40.405Z,0.40
2023-03-16T11:42:28.386Z,0.50
2023-03-16T11:45:04.121Z,0.47
2023-03-16T11:48:01.113Z,0.40
2023-03-16T11:50:45.691Z,0.50
2023-03-16T11:53:32.346Z,0.45
2023-03-16T11:56:17.130Z,0.40
2023-03-16T11:59:05.244Z,0.50
2023-03-16T12:02:00.807Z,0.40
2023-03-16T12:04:57.598Z,0.40
2023-03-16T12:07:46.422Z,0.40
2023-03-16T12:10:26.085Z,0.30
2023-03-16T12:15:41.992Z,0.50
2023-03-16T12:18:19.284Z,0.40
2023-03-16T12:20:58.201Z,0.40
2023-03-16T12:23:35.898Z,0.40
2023-03-16T12:26:04.554Z,0.30
2023-03-16T12:28:34.254Z,0.40
2023-03-16T12:33:58.757Z,0.40
2023-03-16T12:36:57.619Z,0.40
2023-03-16T12:39:50.048Z,0.40
2023-03-16T12:42:41.567Z,0.30
2023-03-16T12:45:23.233Z,0.50
2023-03-16T12:48:04.102Z,0.40
2023-03-16T12:50:35.487Z,0.30
2023-03-16T12:53:03.504Z,0.40
2023-03-16T12:55:45.957Z,0.43
2023-03-16T12:58:14.239Z,0.40
2023-03-16T13:00:43.597Z,0.30
2023-03-16T13:03:18.094Z,0.40
2023-03-16T13:05:51.292Z,0.40
2023-03-16T13:08:22.852Z,0.30
2023-03-16T13:11:07.401Z,0.30
2023-03-16T13:13:36.364Z,0.30
2023-03-16T13:16:11.047Z,0.50
2023-03-16T13:18:45.086Z,0.40
2023-03-16T13:21:21.474Z,0.40
2023-03-16T13:23:59.353Z,0.40
2023-03-16T13:26:42.013Z,0.30
2023-03-16T13:29:25.574Z,0.38
2023-03-16T13:31:56.315Z,0.30
2023-03-16T13:34:29.713Z,0.40
2023-03-16T13:37:01.446Z,0.30
2023-03-16T13:39:32.201Z,0.32
2023-03-16T13:42:05.657Z,0.40
2023-03-16T13:44:34.842Z,0.40
2023-03-16T13:47:07.348Z,0.40
2023-03-16T13:49:43.900Z,0.30
2023-03-16T13:52:27.949Z,0.50
2023-03-16T13:54:57.579Z,0.40
2023-03-16T13:57:30.465Z,0.40
2023-03-16T14:00:17.875Z,0.30
2023-03-16T14:02:48.782Z,0.50
2023-03-16T14:05:22.585Z,0.40
2023-03-16T14:07:52.814Z,0.40
2023-03-16T14:10:22.200Z,0.50
2023-03-16T14:12:55.884Z,0.40
2023-03-16T14:15:27.937Z,0.43
2023-03-16T14:18:14.537Z,0.50
2023-03-16T14:20:42.840Z,0.45
2023-03-16T14:23:20.417Z,0.40
2023-03-16T14:25:50.218Z,0.30
2023-03-16T14:31:02.617Z,0.30
2023-03-16T14:33:33.591Z,0.47
2023-03-16T14:36:13.644Z,0.40
2023-03-16T14:38:43.721Z,0.47
2023-03-16T14:41:26.533Z,0.50
2023-03-16T14:44:00.128Z,0.30
2023-03-16T14:46:31.357Z,0.43
2023-03-16T14:49:07.718Z,0.40
2023-03-16T14:51:41.882Z,0.38
2023-03-16T14:54:16.196Z,0.40
2023-03-16T14:56:45.198Z,0.50
2023-03-16T14:59:14.612Z,0.30
2023-03-16T15:01:43.562Z,0.40
2023-03-16T15:04:15.193Z,0.45
2023-03-16T15:06:43.381Z,0.43
2023-03-16T15:09:33.228Z,0.40
2023-03-16T15:12:01.205Z,0.50
2023-03-16T15:14:48.021Z,0.40
2023-03-16T15:17:16.546Z,0.47
2023-03-16T15:19:46.398Z,0.32
2023-03-16T15:24:43.329Z,0.43
2023-03-16T15:27:23.730Z,0.45
2023-03-16T15:29:53.510Z,0.30
2023-03-16T15:34:49.933Z,0.43
2023-03-16T15:37:20.746Z,0.50
2023-03-16T15:39:48.921Z,0.40
2023-03-16T15:42:20.063Z,0.30
2023-03-16T15:44:48.402Z,0.40
2023-03-16T15:47:17.809Z,0.50
2023-03-16T15:49:48.216Z,0.30
2023-03-16T15:52:27.906Z,0.40
2023-03-16T15:54:57.405Z,0.38
2023-03-16T15:57:25.427Z,0.32
2023-03-16T15:59:53.755Z,0.40
2023-03-16T16:02:31.091Z,0.40
2023-03-16T16:04:59.514Z,0.50
2023-03-16T16:07:28.024Z,0.45
2023-03-16T16:09:56.230Z,0.30
2023-03-16T16:12:33.545Z,0.40
2023-03-16T16:15:01.722Z,0.43
2023-03-16T16:17:48.023Z,0.40
2023-03-16T16:20:27.694Z,0.50
2023-03-16T16:22:59.796Z,0.50
2023-03-16T16:25:35.150Z,0.40
2023-03-16T16:28:03.305Z,0.40
2023-03-16T16:30:33.002Z,0.50
2023-03-16T16:35:30.327Z,0.40
2023-03-16T16:37:58.466Z,0.50
2023-03-16T16:40:39.057Z,0.40
2023-03-16T16:43:08.249Z,0.52
2023-03-16T16:45:36.796Z,0.45
2023-03-16T16:48:29.710Z,0.47
2023-03-16T16:50:57.613Z,0.40
2023-03-16T16:53:27.243Z,0.40
2023-03-16T16:55:55.793Z,0.50
2023-03-16T16:58:46.424Z,0.50
2023-03-16T17:01:34.120Z,0.60
2023-03-16T17:04:23.338Z,0.43
2023-03-16T17:06:55.515Z,0.55
2023-03-16T17:09:24.135Z,0.50
2023-03-16T17:11:52.181Z,0.50
2023-03-16T17:14:23.692Z,0.40
2023-03-16T17:16:51.844Z,0.50
2023-03-16T17:19:24.320Z,0.50
2023-03-16T17:21:53.728Z,0.45
2023-03-16T17:24:22.555Z,0.50
2023-03-16T17:26:57.063Z,0.40
2023-03-16T17:29:29.856Z,0.47
2023-03-16T17:31:59.361Z,0.50
2023-03-16T17:34:33.059Z,0.40
2023-03-16T17:37:01.690Z,0.47
2023-03-16T17:39:38.128Z,0.52
2023-03-16T17:42:19.237Z,0.50
2023-03-16T17:44:56.179Z,0.40
2023-03-16T17:47:46.773Z,0.60
2023-03-16T17:50:25.688Z,0.60
2023-03-16T17:53:03.908Z,0.50
2023-03-16T17:55:36.807Z,0.60
2023-03-16T17:58:23.295Z,0.50
2023-03-16T18:00:57.177Z,0.50
2023-03-16T18:03:33.020Z,0.47
2023-03-16T18:06:07.878Z,0.63
2023-03-16T18:08:41.064Z,0.50
2023-03-16T18:11:23.061Z,0.50
2023-03-16T18:13:56.621Z,0.60
2023-03-16T18:16:43.931Z,0.60
2023-03-16T18:19:27.391Z,0.47
2023-03-16T18:22:02.073Z,0.60
2023-03-16T18:24:30.227Z,0.50
2023-03-16T18:26:58.430Z,0.50
2023-03-16T18:29:26.414Z,0.40
2023-03-16T18:31:58.178Z,0.55
2023-03-16T18:34:34.748Z,0.63
2023-03-16T18:37:06.147Z,0.60
2023-03-16T18:39:34.679Z,0.50
2023-03-16T18:42:03.048Z,0.77
2023-03-16T18:44:31.361Z,0.50
2023-03-16T18:47:04.200Z,0.40
2023-03-16T18:49:36.462Z,0.63
2023-03-16T18:52:22.674Z,0.60
2023-03-16T18:54:52.898Z,0.50
2023-03-16T18:57:24.018Z,0.70
2023-03-16T18:59:52.443Z,0.73
2023-03-16T19:02:43.512Z,0.70
2023-03-16T19:05:17.238Z,0.55
2023-03-16T19:07:51.385Z,0.60
2023-03-16T19:10:27.510Z,0.60
2023-03-16T19:12:56.575Z,0.65
2023-03-16T19:15:27.974Z,0.80
2023-03-16T19:17:56.341Z,0.50
2023-03-16T19:20:27.688Z,0.50
2023-03-16T19:23:03.992Z,0.40
2023-03-16T19:25:37.945Z,0.60
2023-03-16T19:28:08.822Z,0.57
2023-03-16T19:30:37.268Z,0.63
2023-03-16T19:33:19.634Z,0.50
2023-03-16T19:35:51.983Z,0.40
2023-03-16T19:38:22.960Z,0.43
2023-03-16T19:40:56.242Z,0.68
2023-03-16T19:43:26.092Z,0.60
2023-03-16T19:45:56.254Z,0.50
2023-03-16T19:48:31.693Z,0.50
2023-03-16T19:50:59.674Z,0.40
2023-03-16T19:53:28.981Z,0.50
2023-03-16T19:55:56.996Z,0.60
2023-03-16T19:58:33.990Z,0.60
2023-03-16T20:01:03.585Z,0.60
2023-03-16T20:03:39.642Z,0.50
2023-03-16T20:06:13.224Z,0.50
2023-03-16T20:08:44.130Z,0.60
2023-03-16T20:11:20.138Z,0.57
2023-03-16T20:13:49.074Z,0.60
2023-03-16T20:16:23.696Z,0.70
2023-03-16T20:19:00.260Z,0.60
2023-03-16T20:21:30.653Z,0.50
2023-03-16T20:23:59.914Z,0.60
2023-03-16T20:26:32.780Z,0.52
2023-03-16T20:29:02.031Z,0.57
2023-03-16T20:31:34.482Z,0.70
2023-03-16T20:34:02.867Z,0.55
2023-03-16T20:36:36.993Z,0.60
2023-03-16T20:39:06.477Z,0.57
2023-03-16T20:41:36.331Z,0.50
2023-03-16T20:44:04.876Z,0.52
2023-03-16T20:46:34.940Z,0.68
2023-03-16T20:49:03.523Z,0.60
2023-03-16T20:51:34.083Z,0.47
2023-03-16T20:54:02.036Z,0.40
2023-03-16T20:56:34.056Z,0.30
2023-03-16T20:59:03.713Z,0.80
2023-03-16T21:04:00.078Z,0.43
2023-03-16T21:06:32.575Z,0.40
2023-03-16T21:09:03.260Z,0.50
2023-03-16T21:11:38.191Z,0.50
2023-03-16T21:14:16.574Z,0.60
2023-03-16T21:16:45.137Z,0.70
2023-03-16T21:19:16.134Z,0.63
2023-03-16T21:21:44.500Z,0.50
2023-03-16T21:24:12.627Z,0.60
2023-03-16T21:26:44.927Z,0.32
2023-03-16T21:29:21.139Z,0.80
2023-03-16T21:31:49.766Z,0.75
2023-03-16T21:34:26.153Z,0.70
2023-03-16T21:36:54.152Z,0.60
2023-03-16T21:39:25.159Z,0.55
2023-03-16T21:41:54.712Z,0.50
2023-03-16T21:44:22.863Z,0.65
2023-03-16T21:46:51.319Z,0.70
2023-03-16T21:49:19.712Z,0.50
2023-03-16T21:51:47.892Z,0.45
2023-03-16T21:54:16.808Z,0.63
2023-03-16T21:56:45.360Z,0.45
2023-03-16T21:59:15.493Z,0.70
2023-03-16T22:01:58.680Z,0.70
2023-03-16T22:04:29.695Z,0.70
2023-03-16T22:06:57.641Z,0.60
2023-03-16T22:09:29.867Z,0.40
2023-03-16T22:11:57.947Z,0.70
2023-03-16T22:14:27.585Z,0.70
2023-03-16T22:19:24.792Z,0.70
2023-03-16T22:21:53.071Z,0.70
2023-03-16T22:24:24.682Z,0.60
2023-03-16T22:26:53.635Z,0.60
2023-03-16T22:29:26.215Z,0.60
2023-03-16T22:32:01.174Z,0.47
2023-03-16T22:34:34.194Z,0.60
2023-03-16T22:37:03.373Z,0.50
2023-03-16T22:39:37.580Z,0.65
2023-03-16T22:42:26.281Z,0.57
2023-03-16T22:44:54.875Z,0.80
2023-03-16T22:47:26.350Z,0.55
2023-03-16T22:49:55.207Z,0.50
2023-03-16T22:52:30.741Z,0.77
2023-03-16T22:55:01.363Z,0.60
2023-03-16T22:57:31.602Z,0.57
2023-03-16T23:00:07.076Z,0.70
2023-03-16T23:02:36.444Z,0.65
2023-03-16T23:05:20.615Z,0.60
2023-03-16T23:07:48.925Z,0.50
2023-03-16T23:10:18.884Z,0.40
2023-03-16T23:12:47.144Z,0.60
2023-03-16T23:15:20.157Z,0.50
2023-03-16T23:17:49.578Z,0.45
2023-03-16T23:20:25.404Z,0.65
2023-03-16T23:22:53.793Z,0.57
2023-03-16T23:25:24.022Z,0.60
2023-03-16T23:27:53.502Z,0.60
2023-03-16T23:30:25.993Z,0.47
2023-03-16T23:32:56.785Z,0.50
2023-03-16T23:35:27.936Z,0.55
2023-03-16T23:37:56.861Z,0.70
2023-03-16T23:40:29.989Z,0.60
2023-03-16T23:43:02.022Z,0.73
2023-03-16T23:45:38.464Z,0.70
2023-03-16T23:48:15.042Z,0.73
2023-03-16T23:50:44.783Z,0.63
2023-03-16T23:53:17.498Z,0.43
2023-03-16T23:55:46.697Z,0.70
2023-03-16T23:58:17.258Z,0.68
